createdAt,value
2022-11-08T00:00:29.542Z,2.83
2022-11-08T00:02:57.779Z,3.55
2022-11-08T00:05:43.597Z,3.17
2022-11-08T00:08:29.305Z,4.95
2022-11-08T00:11:23.032Z,3.35
2022-11-08T00:13:59.682Z,4.97
2022-11-08T00:16:28.596Z,3.78
2022-11-08T00:18:55.641Z,4.27
2022-11-08T00:21:22.606Z,4.70
2022-11-08T00:23:49.622Z,3.28
2022-11-08T00:26:16.718Z,3.83
2022-11-08T00:28:43.674Z,4.47
2022-11-08T00:31:10.675Z,3.47
2022-11-08T00:33:37.638Z,2.08
2022-11-08T00:36:05.189Z,4.00
2022-11-08T00:38:32.203Z,2.83
2022-11-08T00:40:59.142Z,3.35
2022-11-08T00:43:26.096Z,2.15
2022-11-08T00:45:53.161Z,3.67
2022-11-08T00:48:20.329Z,5.13
2022-11-08T00:50:47.584Z,3.72
2022-11-08T00:53:14.553Z,2.33
2022-11-08T00:55:41.501Z,3.60
2022-11-08T00:58:08.482Z,2.30
2022-11-08T01:00:35.420Z,3.65
2022-11-08T01:03:20.681Z,2.72
2022-11-08T01:05:53.849Z,4.78
2022-11-08T01:08:23.389Z,3.63
2022-11-08T01:10:52.162Z,3.47
2022-11-08T01:13:19.928Z,1.92
2022-11-08T01:15:47.733Z,3.75
2022-11-08T01:18:17.345Z,3.08
2022-11-08T01:20:47.441Z,2.97
2022-11-08T01:23:14.571Z,2.45
2022-11-08T01:25:45.231Z,3.38
2022-11-08T01:28:13.497Z,3.67
2022-11-08T01:30:43.206Z,4.20
2022-11-08T01:33:11.588Z,3.90
2022-11-08T01:35:39.473Z,2.83
2022-11-08T01:38:07.157Z,3.95
2022-11-08T01:40:41.862Z,5.63
2022-11-08T01:43:49.517Z,4.22
2022-11-08T01:46:36.917Z,2.17
2022-11-08T01:49:22.525Z,3.33
2022-11-08T01:52:18.501Z,2.63
2022-11-08T01:55:19.146Z,4.75
2022-11-08T01:58:02.367Z,1.88
2022-11-08T02:00:30.072Z,3.42
2022-11-08T02:03:05.773Z,5.13
2022-11-08T02:05:34.425Z,4.00
2022-11-08T02:08:04.201Z,2.90
2022-11-08T02:10:40.552Z,2.35
2022-11-08T02:13:18.766Z,2.00
2022-11-08T02:15:46.358Z,1.50
2022-11-08T02:18:16.155Z,2.60
2022-11-08T02:20:54.686Z,3.45
2022-11-08T02:23:44.309Z,3.03
2022-11-08T02:26:12.396Z,2.58
2022-11-08T02:28:41.496Z,4.77
2022-11-08T02:31:10.664Z,1.80
2022-11-08T02:33:38.160Z,3.20
2022-11-08T02:36:06.721Z,2.40
2022-11-08T02:38:39.108Z,2.70
2022-11-08T02:41:06.559Z,4.00
2022-11-08T02:43:33.540Z,4.47
2022-11-08T02:46:00.984Z,2.65
2022-11-08T02:48:28.029Z,2.30
2022-11-08T02:50:55.234Z,2.80
2022-11-08T02:53:22.253Z,1.58
2022-11-08T02:55:49.225Z,3.88
2022-11-08T02:58:16.659Z,1.27
2022-11-08T03:00:43.880Z,3.17
2022-11-08T03:03:10.838Z,3.60
2022-11-08T03:05:38.032Z,2.67
2022-11-08T03:08:05.335Z,4.28
2022-11-08T03:10:32.343Z,4.50
2022-11-08T03:13:02.683Z,2.33
2022-11-08T03:15:30.472Z,1.25
2022-11-08T03:17:58.826Z,1.65
2022-11-08T03:20:32.191Z,4.30
2022-11-08T03:23:06.507Z,0.90
2022-11-08T03:25:34.733Z,4.93
2022-11-08T03:28:09.065Z,2.65
2022-11-08T03:30:36.856Z,2.85
2022-11-08T03:33:04.099Z,1.90
2022-11-08T03:35:31.893Z,2.92
2022-11-08T03:37:59.063Z,2.17
2022-11-08T03:40:27.062Z,2.33
2022-11-08T03:42:57.261Z,3.28
2022-11-08T03:45:24.332Z,4.43
2022-11-08T03:47:51.344Z,4.57
2022-11-08T03:50:18.398Z,2.88
2022-11-08T03:52:49.335Z,2.83
2022-11-08T03:55:18.436Z,2.08
2022-11-08T03:57:48.096Z,4.10
2022-11-08T04:00:18.795Z,1.48
2022-11-08T04:02:46.141Z,2.45
2022-11-08T04:05:15.165Z,3.67
2022-11-08T04:07:42.436Z,1.85
2022-11-08T04:10:11.686Z,3.10
2022-11-08T04:13:01.218Z,4.38
2022-11-08T04:15:29.962Z,3.38
2022-11-08T04:18:24.628Z,2.40
2022-11-08T04:21:10.104Z,2.65
2022-11-08T04:23:38.021Z,2.88
2022-11-08T04:26:08.137Z,2.00
2022-11-08T04:28:38.218Z,2.65
2022-11-08T04:31:13.210Z,4.55
2022-11-08T04:33:40.764Z,2.80
2022-11-08T04:36:13.095Z,0.95
2022-11-08T04:38:40.177Z,1.45
2022-11-08T04:41:12.489Z,1.35
2022-11-08T04:43:39.885Z,3.40
2022-11-08T04:46:15.829Z,1.83
2022-11-08T04:48:44.236Z,1.95
2022-11-08T04:51:18.104Z,2.17
2022-11-08T04:53:45.958Z,1.80
2022-11-08T04:56:16.458Z,3.97
2022-11-08T04:58:46.787Z,2.97
2022-11-08T05:01:18.340Z,5.35
2022-11-08T05:03:47.992Z,2.33
2022-11-08T05:06:30.887Z,3.50
2022-11-08T05:08:59.700Z,3.00
2022-11-08T05:11:29.131Z,2.20
2022-11-08T05:13:56.377Z,1.17
2022-11-08T05:16:27.700Z,1.60
2022-11-08T05:18:55.362Z,1.45
2022-11-08T05:21:41.923Z,2.20
2022-11-08T05:24:14.683Z,2.33
2022-11-08T05:26:43.804Z,2.75
2022-11-08T05:29:12.736Z,2.33
2022-11-08T05:31:39.752Z,1.80
2022-11-08T05:34:07.688Z,2.63
2022-11-08T05:36:34.898Z,1.50
2022-11-08T05:39:01.877Z,3.60
2022-11-08T05:41:29.589Z,1.92
2022-11-08T05:43:56.743Z,1.97
2022-11-08T05:46:24.286Z,2.08
2022-11-08T05:48:51.564Z,3.25
2022-11-08T05:51:19.993Z,1.90
2022-11-08T05:53:48.730Z,1.73
2022-11-08T05:56:16.848Z,2.80
2022-11-08T05:58:44.244Z,3.30
2022-11-08T06:01:17.212Z,2.20
2022-11-08T06:03:45.017Z,1.40
2022-11-08T06:06:19.809Z,3.15
2022-11-08T06:08:50.619Z,1.40
2022-11-08T06:11:27.277Z,2.15
2022-11-08T06:13:55.348Z,1.83
2022-11-08T06:16:24.413Z,1.73
2022-11-08T06:18:51.511Z,1.02
2022-11-08T06:21:20.653Z,2.03
2022-11-08T06:23:48.116Z,0.65
2022-11-08T06:26:15.109Z,1.20
2022-11-08T06:28:42.117Z,0.17
2022-11-08T06:31:09.151Z,2.10
2022-11-08T06:33:36.222Z,1.83
2022-11-08T06:36:03.222Z,2.13
2022-11-08T06:38:30.258Z,3.55
2022-11-08T06:41:01.855Z,4.07
2022-11-08T06:43:29.102Z,2.92
2022-11-08T06:46:00.668Z,2.30
2022-11-08T06:48:31.091Z,1.33
2022-11-08T06:51:03.362Z,0.52
2022-11-08T06:53:30.851Z,0.93
2022-11-08T06:56:02.478Z,0.80
2022-11-08T06:58:30.987Z,0.83
2022-11-08T07:00:58.347Z,1.00
2022-11-08T07:03:25.499Z,1.60
2022-11-08T07:05:52.450Z,1.30
2022-11-08T07:08:23.575Z,0.68
2022-11-08T07:10:51.699Z,0.50
2022-11-08T07:13:19.159Z,0.63
2022-11-08T07:15:48.056Z,1.88
2022-11-08T07:18:17.623Z,0.75
2022-11-08T07:20:44.813Z,1.00
2022-11-08T07:23:12.583Z,1.65
2022-11-08T07:25:39.640Z,0.68
2022-11-08T07:28:08.701Z,0.50
2022-11-08T07:30:35.875Z,1.33
2022-11-08T07:33:04.016Z,1.20
2022-11-08T07:35:31.126Z,1.35
2022-11-08T07:37:58.362Z,1.30
2022-11-08T07:40:26.138Z,0.30
2022-11-08T07:45:41.860Z,1.38
2022-11-08T07:48:13.558Z,1.00
2022-11-08T07:50:42.676Z,0.75
2022-11-08T07:53:10.377Z,0.60
2022-11-08T07:55:39.247Z,0.90
2022-11-08T07:58:07.368Z,0.77
2022-11-08T08:00:36.943Z,1.20
2022-11-08T08:03:06.804Z,0.60
2022-11-08T08:05:37.783Z,1.00
2022-11-08T08:08:05.646Z,0.75
2022-11-08T08:10:33.249Z,0.88
2022-11-08T08:13:01.490Z,0.77
2022-11-08T08:15:28.659Z,0.70
2022-11-08T08:17:55.988Z,0.57
2022-11-08T08:20:22.951Z,0.60
2022-11-08T08:22:52.343Z,0.85
2022-11-08T08:25:19.922Z,0.30
2022-11-08T08:27:55.823Z,1.00
2022-11-08T08:30:24.381Z,1.52
2022-11-08T08:33:02.192Z,0.30
2022-11-08T08:35:36.978Z,1.38
2022-11-08T08:38:06.054Z,0.60
2022-11-08T08:40:34.172Z,1.30
2022-11-08T08:43:03.496Z,0.60
2022-11-08T08:45:34.678Z,0.65
2022-11-08T08:48:02.333Z,0.50
2022-11-08T08:50:32.011Z,0.97
2022-11-08T08:53:00.240Z,1.00
2022-11-08T08:55:28.310Z,1.27
2022-11-08T08:57:55.926Z,1.50
2022-11-08T09:03:12.002Z,0.95
2022-11-08T09:05:43.823Z,0.57
2022-11-08T09:08:11.852Z,0.60
2022-11-08T09:10:38.910Z,0.98
2022-11-08T09:13:06.046Z,0.80
2022-11-08T09:15:33.256Z,1.70
2022-11-08T09:18:00.755Z,0.75
2022-11-08T09:20:27.766Z,2.30
2022-11-08T09:22:54.721Z,0.98
2022-11-08T09:25:21.749Z,0.93
2022-11-08T09:27:48.756Z,0.73
2022-11-08T09:30:15.687Z,1.60
2022-11-08T09:35:30.760Z,1.20
2022-11-08T09:37:58.612Z,1.00
2022-11-08T09:40:39.973Z,0.85
2022-11-08T09:43:30.978Z,1.50
2022-11-08T09:45:58.044Z,1.48
2022-11-08T09:48:40.098Z,0.70
2022-11-08T09:51:20.230Z,0.85
2022-11-08T09:54:01.174Z,1.27
2022-11-08T09:56:35.303Z,1.63
2022-11-08T09:59:38.031Z,1.17
2022-11-08T10:02:19.030Z,2.03
2022-11-08T10:04:55.015Z,1.83
2022-11-08T10:07:53.389Z,0.95
2022-11-08T10:10:50.583Z,0.80
2022-11-08T10:13:30.053Z,1.52
2022-11-08T10:16:13.438Z,1.02
2022-11-08T10:18:49.535Z,1.38
2022-11-08T10:21:51.915Z,1.17
2022-11-08T10:25:21.786Z,0.63
2022-11-08T10:27:53.792Z,1.48
2022-11-08T10:30:30.373Z,0.85
2022-11-08T10:32:57.879Z,1.20
2022-11-08T10:35:41.604Z,0.80
2022-11-08T10:38:22.678Z,0.80
2022-11-08T10:41:01.804Z,1.65
2022-11-08T10:43:53.129Z,0.90
2022-11-08T10:47:00.507Z,1.20
2022-11-08T10:49:41.221Z,0.88
2022-11-08T10:52:28.104Z,0.82
2022-11-08T10:54:58.855Z,0.85
2022-11-08T10:57:31.570Z,0.57
2022-11-08T11:00:22.007Z,0.80
2022-11-08T11:03:17.911Z,0.70
2022-11-08T11:05:59.441Z,1.55
2022-11-08T11:08:26.791Z,1.20
2022-11-08T11:10:54.054Z,1.58
2022-11-08T11:13:22.900Z,1.00
2022-11-08T11:16:00.338Z,1.50
2022-11-08T11:18:49.503Z,1.00
2022-11-08T11:21:22.006Z,1.00
2022-11-08T11:24:15.410Z,1.67
2022-11-08T11:27:01.123Z,1.00
2022-11-08T11:29:39.240Z,1.88
2022-11-08T11:32:32.579Z,1.50
2022-11-08T11:35:05.802Z,2.30
2022-11-08T11:37:43.507Z,0.80
2022-11-08T11:40:45.660Z,1.02
2022-11-08T11:43:32.788Z,1.10
2022-11-08T11:46:23.474Z,1.58
2022-11-08T11:49:00.688Z,0.68
2022-11-08T11:51:30.321Z,1.70
2022-11-08T11:53:58.282Z,1.10
2022-11-08T11:56:41.132Z,0.95
2022-11-08T11:59:29.163Z,1.30
2022-11-08T12:02:39.430Z,0.50
2022-11-08T12:05:32.104Z,0.63
2022-11-08T12:08:28.338Z,2.40
2022-11-08T12:11:15.723Z,2.05
2022-11-08T12:14:05.915Z,0.57
2022-11-08T12:17:07.761Z,1.20
2022-11-08T12:20:26.631Z,1.33
2022-11-08T12:23:35.272Z,1.63
2022-11-08T12:26:19.696Z,0.80
2022-11-08T12:29:19.554Z,2.28
2022-11-08T12:32:18.867Z,0.93
2022-11-08T12:34:55.490Z,2.03
2022-11-08T12:37:53.521Z,0.95
2022-11-08T12:40:47.395Z,2.30
2022-11-08T12:43:32.328Z,1.40
2022-11-08T12:46:13.183Z,0.90
2022-11-08T12:49:20.898Z,1.10
2022-11-08T12:52:21.962Z,1.05
2022-11-08T12:54:59.596Z,2.05
2022-11-08T12:57:31.288Z,1.60
2022-11-08T13:00:14.954Z,1.38
2022-11-08T13:02:44.599Z,1.00
2022-11-08T13:05:28.308Z,0.68
2022-11-08T13:08:24.563Z,1.23
2022-11-08T13:11:10.475Z,1.33
2022-11-08T13:13:54.742Z,2.00
2022-11-08T13:16:26.508Z,1.50
2022-11-08T13:19:00.166Z,1.15
2022-11-08T13:21:30.238Z,1.23
2022-11-08T13:24:14.040Z,1.20
2022-11-08T13:26:50.337Z,1.70
2022-11-08T13:29:20.254Z,1.92
2022-11-08T13:32:21.077Z,0.98
2022-11-08T13:35:12.056Z,1.17
2022-11-08T13:38:21.751Z,1.53
2022-11-08T13:41:22.287Z,1.42
2022-11-08T13:43:50.941Z,1.00
2022-11-08T13:46:25.776Z,1.55
2022-11-08T13:49:03.308Z,1.98
2022-11-08T13:51:33.405Z,1.20
2022-11-08T13:54:31.872Z,1.05
2022-11-08T13:57:01.410Z,1.15
2022-11-08T13:59:55.353Z,1.45
2022-11-08T14:02:25.502Z,1.77
2022-11-08T14:04:53.999Z,0.70
2022-11-08T14:07:28.810Z,1.85
2022-11-08T14:10:33.619Z,0.75
2022-11-08T14:13:49.245Z,1.05
2022-11-08T14:16:22.599Z,2.00
2022-11-08T14:18:49.583Z,1.70
2022-11-08T14:21:20.154Z,1.40
2022-11-08T14:23:50.804Z,0.50
2022-11-08T14:26:23.584Z,1.27
2022-11-08T14:28:53.027Z,1.20
2022-11-08T14:31:32.652Z,1.05
2022-11-08T14:34:01.549Z,0.90
2022-11-08T14:36:31.045Z,1.30
2022-11-08T14:39:18.136Z,1.42
2022-11-08T14:41:54.008Z,2.33
2022-11-08T14:44:21.809Z,0.30
2022-11-08T14:46:49.394Z,1.80
2022-11-08T14:49:37.864Z,1.58
2022-11-08T14:52:32.017Z,0.93
2022-11-08T14:55:07.463Z,1.50
2022-11-08T14:57:45.649Z,0.80
2022-11-08T15:00:21.620Z,0.50
2022-11-08T15:02:53.381Z,0.80
2022-11-08T15:05:41.802Z,1.20
2022-11-08T15:08:46.036Z,1.58
2022-11-08T15:11:29.486Z,0.75
2022-11-08T15:14:03.320Z,0.95
2022-11-08T15:16:49.739Z,1.50
2022-11-08T15:19:31.866Z,0.82
2022-11-08T15:22:23.561Z,0.47
2022-11-08T15:25:02.886Z,0.90
2022-11-08T15:27:30.321Z,1.00
2022-11-08T15:30:09.265Z,0.53
2022-11-08T15:32:39.725Z,1.33
2022-11-08T15:35:20.131Z,1.58
2022-11-08T15:37:49.236Z,0.98
2022-11-08T15:40:31.999Z,0.80
2022-11-08T15:43:00.294Z,0.77
2022-11-08T15:45:35.705Z,1.27
2022-11-08T15:48:22.058Z,0.82
2022-11-08T15:50:49.655Z,2.30
2022-11-08T15:53:17.165Z,1.38
2022-11-08T15:55:55.515Z,0.70
2022-11-08T15:58:33.945Z,0.93
2022-11-08T16:01:02.992Z,7.73
2022-11-08T16:03:31.128Z,1.95
2022-11-08T16:05:58.258Z,4.60
2022-11-08T16:08:25.608Z,4.45
2022-11-08T16:11:01.422Z,2.75
2022-11-08T16:13:37.253Z,3.27
2022-11-08T16:16:11.194Z,3.33
2022-11-08T16:18:39.018Z,3.22
2022-11-08T16:21:06.508Z,4.50
2022-11-08T16:23:33.535Z,4.68
2022-11-08T16:26:03.561Z,5.75
2022-11-08T16:28:35.356Z,3.42
2022-11-08T16:31:05.385Z,4.28
2022-11-08T16:33:34.769Z,3.72
2022-11-08T16:36:24.377Z,2.88
2022-11-08T16:38:56.565Z,5.63
2022-11-08T16:41:25.301Z,3.38
2022-11-08T16:43:52.730Z,4.10
2022-11-08T16:46:21.744Z,8.90
2022-11-08T16:48:56.268Z,4.00
2022-11-08T16:51:25.399Z,1.92
2022-11-08T16:53:53.514Z,3.95
2022-11-08T16:56:21.113Z,3.53
2022-11-08T16:58:48.155Z,2.77
2022-11-08T17:01:24.085Z,2.30
2022-11-08T17:03:51.220Z,3.92
2022-11-08T17:06:19.134Z,5.25
2022-11-08T17:08:47.238Z,2.15
2022-11-08T17:11:22.817Z,3.03
2022-11-08T17:13:50.793Z,3.75
2022-11-08T17:16:18.816Z,7.28
2022-11-08T17:18:52.209Z,7.10
2022-11-08T17:24:07.223Z,2.83
2022-11-08T17:26:34.174Z,4.35
2022-11-08T17:29:01.177Z,6.80
2022-11-08T17:31:28.183Z,3.25
2022-11-08T17:33:56.022Z,3.70
2022-11-08T17:36:23.272Z,3.47
2022-11-08T17:38:50.260Z,2.45
2022-11-08T17:41:17.698Z,4.30
2022-11-08T17:43:44.736Z,4.57
2022-11-08T17:46:12.524Z,3.50
2022-11-08T17:48:40.260Z,3.40
2022-11-08T17:51:08.564Z,3.30
2022-11-08T17:53:36.301Z,4.97
2022-11-08T17:56:05.578Z,3.80
2022-11-08T17:58:34.195Z,2.65
2022-11-08T18:01:04.637Z,3.63
2022-11-08T18:03:32.165Z,3.08
2022-11-08T18:06:02.626Z,3.47
2022-11-08T18:08:31.881Z,4.50
2022-11-08T18:10:59.573Z,3.40
2022-11-08T18:13:28.782Z,5.13
2022-11-08T18:16:04.747Z,4.30
2022-11-08T18:18:31.735Z,5.25
2022-11-08T18:20:58.700Z,6.03
2022-11-08T18:23:25.740Z,5.60
2022-11-08T18:25:56.294Z,3.65
2022-11-08T18:28:24.249Z,4.30
2022-11-08T18:30:51.650Z,4.18
2022-11-08T18:33:20.776Z,3.67
2022-11-08T18:35:48.524Z,4.57
2022-11-08T18:38:15.599Z,3.97
2022-11-08T18:40:45.696Z,3.70
2022-11-08T18:43:12.747Z,2.92
2022-11-08T18:45:39.805Z,5.53
2022-11-08T18:48:07.086Z,4.38
2022-11-08T18:50:35.356Z,3.97
2022-11-08T18:53:04.705Z,4.20
2022-11-08T18:55:33.819Z,4.53
2022-11-08T18:58:01.662Z,5.38
2022-11-08T19:00:28.724Z,5.77
2022-11-08T19:02:56.006Z,4.25
2022-11-08T19:05:23.644Z,4.90
2022-11-08T19:07:50.843Z,5.07
2022-11-08T19:10:22.390Z,2.53
2022-11-08T19:12:49.546Z,7.55
2022-11-08T19:15:16.897Z,4.53
2022-11-08T19:17:48.412Z,3.28
2022-11-08T19:20:18.570Z,5.78
2022-11-08T19:22:45.639Z,4.88
2022-11-08T19:25:13.070Z,5.15
2022-11-08T19:27:40.155Z,3.72
2022-11-08T19:30:09.286Z,6.13
2022-11-08T19:32:36.422Z,6.57
2022-11-08T19:35:03.530Z,6.07
2022-11-08T19:37:30.967Z,2.33
2022-11-08T19:39:58.211Z,7.47
2022-11-08T19:42:25.548Z,4.95
2022-11-08T19:44:52.760Z,3.70
2022-11-08T19:47:20.008Z,4.03
2022-11-08T19:49:47.292Z,4.00
2022-11-08T19:52:15.256Z,5.10
2022-11-08T19:54:42.586Z,3.38
2022-11-08T19:57:09.935Z,3.85
2022-11-08T19:59:37.041Z,4.72
2022-11-08T20:02:05.715Z,4.15
2022-11-08T20:04:33.005Z,3.38
2022-11-08T20:07:00.313Z,5.63
2022-11-08T20:09:30.733Z,6.57
2022-11-08T20:11:58.490Z,3.30
2022-11-08T20:14:25.869Z,4.10
2022-11-08T20:16:54.129Z,4.22
2022-11-08T20:19:21.504Z,5.00
2022-11-08T20:21:49.356Z,4.05
2022-11-08T20:24:18.983Z,3.75
2022-11-08T20:26:46.206Z,6.78
2022-11-08T20:29:14.824Z,8.13
2022-11-08T20:31:42.649Z,7.33
2022-11-08T20:34:12.928Z,9.80
2022-11-08T20:36:41.709Z,10.68
2022-11-08T20:39:10.523Z,9.93
2022-11-08T20:41:39.233Z,10.70
2022-11-08T20:44:08.491Z,8.55
2022-11-08T20:46:36.610Z,4.13
2022-11-08T20:49:05.361Z,6.93
2022-11-08T20:51:33.495Z,6.03
2022-11-08T20:54:01.395Z,2.80
2022-11-08T20:56:29.344Z,4.38
2022-11-08T20:58:57.111Z,4.53
2022-11-08T21:01:28.256Z,2.65
2022-11-08T21:03:56.493Z,4.05
2022-11-08T21:06:26.104Z,3.00
2022-11-08T21:08:59.947Z,3.90
2022-11-08T21:11:30.797Z,6.50
2022-11-08T21:13:58.138Z,3.40
2022-11-08T21:16:46.936Z,4.07
2022-11-08T21:19:12.193Z,2.97
2022-11-08T21:21:39.261Z,5.88
2022-11-08T21:24:06.813Z,2.25
2022-11-08T21:26:36.994Z,6.60
2022-11-08T21:29:05.674Z,4.60
2022-11-08T21:31:34.112Z,3.67
2022-11-08T21:34:01.104Z,4.55
2022-11-08T21:36:29.204Z,4.22
2022-11-08T21:38:56.510Z,5.03
2022-11-08T21:41:23.570Z,5.93
2022-11-08T21:43:50.513Z,3.97
2022-11-08T21:46:26.301Z,5.30
2022-11-08T21:48:59.250Z,8.00
2022-11-08T21:51:29.334Z,4.55
2022-11-08T21:53:58.625Z,5.63
2022-11-08T21:56:30.066Z,5.55
2022-11-08T21:58:57.582Z,7.63
2022-11-08T22:01:29.943Z,5.18
2022-11-08T22:03:58.967Z,5.40
2022-11-08T22:06:27.033Z,4.82
2022-11-08T22:08:54.133Z,5.93
2022-11-08T22:11:21.201Z,4.38
2022-11-08T22:13:48.210Z,1.80
2022-11-08T22:16:15.420Z,5.53
2022-11-08T22:19:03.449Z,4.95
2022-11-08T22:21:39.095Z,2.80
2022-11-08T22:24:08.572Z,4.53
2022-11-08T22:26:35.667Z,4.57
2022-11-08T22:29:03.485Z,3.85
2022-11-08T22:31:31.356Z,4.32
2022-11-08T22:33:58.566Z,4.93
2022-11-08T22:36:25.670Z,2.80
2022-11-08T22:38:52.685Z,3.63
2022-11-08T22:41:22.479Z,1.75
2022-11-08T22:43:49.925Z,2.63
2022-11-08T22:46:17.317Z,3.17
2022-11-08T22:48:44.653Z,4.28
2022-11-08T22:51:12.251Z,3.45
2022-11-08T22:53:39.665Z,2.47
2022-11-08T22:56:11.269Z,3.40
2022-11-08T22:58:39.704Z,3.55
2022-11-08T23:01:10.690Z,1.73
2022-11-08T23:03:37.725Z,1.80
2022-11-08T23:06:05.008Z,3.83
2022-11-08T23:08:32.165Z,4.75
2022-11-08T23:11:18.958Z,2.20
2022-11-08T23:14:04.488Z,3.23
2022-11-08T23:16:35.031Z,2.40
2022-11-08T23:19:30.888Z,2.38
2022-11-08T23:22:16.888Z,4.28
2022-11-08T23:24:44.533Z,1.55
2022-11-08T23:27:33.516Z,2.57
2022-11-08T23:30:19.235Z,3.45
2022-11-08T23:32:50.022Z,3.72
2022-11-08T23:35:19.121Z,2.33
2022-11-08T23:37:46.567Z,3.60
2022-11-08T23:40:33.958Z,4.47
2022-11-08T23:43:37.691Z,5.50
2022-11-08T23:46:11.249Z,3.85
2022-11-08T23:48:40.591Z,4.13
2022-11-08T23:51:08.382Z,5.82
2022-11-08T23:53:40.040Z,15.93
2022-11-08T23:56:07.455Z,3.42
2022-11-08T23:58:34.538Z,5.72
